Airfield :
LOGIN :

Register | Disclaimer

   EN    FR    IT 

 










Legend :    VFR   Marginal VFR   IFR   Intensive IFR   Very Intensive IFR
Visi :
Ceiling :
>= 8 km
>= 3000ft
5 to 8 km
1000 to 3000 ft
1500m to 5 km
500 to 1000 ft
800 to 1500m
200 to 500 ft
< 800m
< 200 ft
Symbols :   Thunderstorms  Fog  Heavy snow  Heavy precipitations  Wind > 20 kt
SIGMETs :     Misc.  Thunderstorms  Icing  Turbulence  Mountain Waves  Volcanic Ashes






- Airport Elevation : 28 ft
- IATA code : SOZ


LFKS - Solenzara

CURRENT METAR :
  • 150300Z AUTO 18015KT 9999 FEW060 SCT110 OVC230 14/12 Q0999

EXPIRED METARs :
  • 150230Z AUTO 18013KT 9999 -RA FEW024/// SCT062/// BKN088/// ///TCU 13/12 Q1000
  • 150200Z AUTO 18017KT 9999 SCT058/// BKN082/// BKN100/// ///CB 14/12 Q1000
  • 150130Z AUTO 18017KT 9999 -RA FEW049/// BKN078/// OVC096/// ///CB 14/12 Q1000
  • 150100Z AUTO 18016KT 9999 -RA FEW046/// BKN076/// OVC094/// ///CB 14/11 Q1001
  • 150030Z AUTO 19013KT 9999 -RA BKN092/// OVC110/// ///CB 14/11 Q1000

TAF TAF LFKS
Valid from the 14 at 15:00 until the 15 at 15:00 UTC


141400Z 1415/1515 15005KT CAVOK
BECMG 1420/1422 21010KT BKN030
TEMPO 1423/1509 21015G25KT RA
PROB30
TEMPO 1500/1509 -TSRA BKN010 BKN020CB



MET'MAP, your aeronautical weather chart ! - Copyright ORBIFLY December 2007 - Disclaimer

ORBIFLY MET'MAP TEAM :

Programming & Development : Alexandra Zaïnal
Concept & Development : Baudouin d'Aumeries
Co-Development & Prog : Marc-Olivier Méhu
Technical & hardware support : Manuel Goepfert

Contact : metmap@orbifly.com




SOURCES & CREDITS :

   NOAA